M I D A S
Marine Information and Data Acquisition System
Tripno 837 of the Zeeleeuw from 2005-01-13 07:08:01 to 2005-01-13 17:56:54
Back to CruiseResearch ActivitiesStationsMapUnderway DataData graphs

EquipmentUnitsComment
TimeDGPSUTC
LatitudeDGPSDM.mWGS84
LongitudeDGPSDM.mWGS84
HeadingGyrodeg 
SOGDGPSknotsSpeed over ground
COGDGPSdegCourse over ground
DepthEcho soundermeters200 kHz
Missing or incorrect values are displayed as -999
Navigation data collected by the RV Zeeleeuw from 2005-01-13 07:08:44 to 2005-01-13 18:06:43
                                                                                    Next 1000 lines
Time Latitude Longitude Heading SOG COG Depth
2005-01-13 07:08:54 51°13.593 2°56.101 117.8 1.1 286 7.5
2005-01-13 07:08:59 51°13.594 2°56.098 118.1 1.5 298 7.5
2005-01-13 07:09:04 51°13.595 2°56.094 118.3 1.8 293 7.4
2005-01-13 07:09:09 51°13.597 2°56.09 118.9 2 297 5
2005-01-13 07:09:13 51°13.598 2°56.086 119.7 2.3 295 -999
2005-01-13 07:09:20 51°13.6 2°56.079 120.4 2.5 299 -999
2005-01-13 07:09:25 51°13.602 2°56.073 121 2.9 298 -999
2005-01-13 07:09:30 51°13.605 2°56.067 121.7 3.1 299 -999
2005-01-13 07:09:35 51°13.607 2°56.06 121.8 3.3 299 -999
2005-01-13 07:09:39 51°13.609 2°56.055 121.8 3.6 299 -999
2005-01-13 07:09:45 51°13.612 2°56.046 121.7 3.7 300 -999
2005-01-13 07:09:49 51°13.614 2°56.04 121.7 4 299 -999
2005-01-13 07:09:55 51°13.618 2°56.03 121.5 4.1 299 -999
2005-01-13 07:09:59 51°13.62 2°56.023 121.5 4.3 298 -999
2005-01-13 07:10:05 51°13.623 2°56.013 121.5 4.4 299 -999
2005-01-13 07:10:09 51°13.626 2°56.006 121.6 4.4 299 -999
2005-01-13 07:10:15 51°13.63 2°55.995 121.9 4.6 300 -999
2005-01-13 07:10:19 51°13.632 2°55.988 122.2 4.7 300 -999
2005-01-13 07:10:25 51°13.636 2°55.977 122.3 4.7 300 -999
2005-01-13 07:10:29 51°13.639 2°55.97 121.9 4.8 299 -999
2005-01-13 07:10:35 51°13.643 2°55.959 121.2 4.8 299 -999
2005-01-13 07:10:39 51°13.645 2°55.951 120.2 4.9 298 -999
2005-01-13 07:10:45 51°13.649 2°55.939 119 5 297 -999
2005-01-13 07:10:49 51°13.652 2°55.931 117.8 5 297 -999
2005-01-13 07:10:55 51°13.655 2°55.918 116.8 5.1 295 -999
2005-01-13 07:10:59 51°13.658 2°55.91 115 5.2 294 -999
2005-01-13 07:11:05 51°13.661 2°55.897 113.2 5.2 292 -999
2005-01-13 07:11:09 51°13.663 2°55.888 111.6 5.3 290 -999
2005-01-13 07:11:15 51°13.666 2°55.875 109.7 5.3 289 -999
2005-01-13 07:11:19 51°13.667 2°55.866 108.1 5.3 287 -999
2005-01-13 07:11:25 51°13.67 2°55.852 106.1 5.3 285 -999
2005-01-13 07:11:29 51°13.671 2°55.843 104.1 5.4 282 -999
2005-01-13 07:11:35 51°13.672 2°55.829 101.7 5.4 281 -999
2005-01-13 07:11:39 51°13.673 2°55.82 100 5.4 279 -999
2005-01-13 07:11:45 51°13.674 2°55.806 98.3 5.3 278 -999
2005-01-13 07:11:49 51°13.675 2°55.797 96.9 5.1 276 -999
2005-01-13 07:11:54 51°13.675 2°55.786 95.9 5 276 -999
2005-01-13 07:11:59 51°13.676 2°55.775 94.8 4.9 274 -999
2005-01-13 07:12:05 51°13.677 2°55.763 93.8 4.7 275 -999
2005-01-13 07:12:09 51°13.677 2°55.756 93.2 4.3 272 -999
2005-01-13 07:12:15 51°13.677 2°55.747 92.5 3.7 273 -999
2005-01-13 07:12:19 51°13.677 2°55.743 90 2.4 272 -999
2005-01-13 07:12:24 51°13.677 2°55.741 87 1.3 276 12.7
2005-01-13 07:12:29 51°13.678 2°55.742 82.4 0.4 326 12.8
2005-01-13 07:12:34 51°13.679 2°55.745 76.4 0.9 46 12.9
2005-01-13 07:12:38 51°13.681 2°55.748 65.2 2.1 51 -999
2005-01-13 07:12:45 51°13.685 2°55.754 54.8 2.6 44 -999
2005-01-13 07:12:49 51°13.689 2°55.756 43.1 3.1 34 13.2
2005-01-13 07:12:53 51°13.692 2°55.759 35.5 3.3 24 14.1
2005-01-13 07:12:59 51°13.697 2°55.761 28.5 3.1 17 14.3
2005-01-13 07:13:04 51°13.7 2°55.762 21.8 2.8 12 14.7
2005-01-13 07:13:09 51°13.703 2°55.762 18 1.9 13 14.3
2005-01-13 07:13:13 51°13.704 2°55.763 12.7 1.7 9 13.9
2005-01-13 07:13:19 51°13.704 2°55.762 8.5 0.5 5 13.8
2005-01-13 07:13:25 51°13.703 2°55.762 6 0.1 296 13.8
2005-01-13 07:13:29 51°13.702 2°55.762 4.1 0.6 186 14
2005-01-13 07:13:34 51°13.701 2°55.762 2.8 1 187 14.2
2005-01-13 07:13:40 51°13.699 2°55.761 1.7 0.9 191 -999
2005-01-13 07:13:45 51°13.7 2°55.761 1.1 0.3 225 -999
2005-01-13 07:13:49 51°13.701 2°55.76 358.8 0.3 317 -999
2005-01-13 07:13:55 51°13.704 2°55.758 353 1.6 336 -999
2005-01-13 07:13:59 51°13.706 2°55.756 346.1 2.4 336 -999
2005-01-13 07:14:05 51°13.711 2°55.752 339 3 330 -999
2005-01-13 07:14:09 51°13.715 2°55.749 336.3 3.2 332 13.2
2005-01-13 07:14:13 51°13.718 2°55.745 333.9 3.7 327 12.6
2005-01-13 07:14:19 51°13.724 2°55.739 332.2 4 328 11
2005-01-13 07:14:23 51°13.728 2°55.734 330.5 4 328 10.4
2005-01-13 07:14:29 51°13.735 2°55.725 329 5 323 10.5
2005-01-13 07:14:34 51°13.741 2°55.718 327.9 5.6 322 10.2
2005-01-13 07:14:39 51°13.748 2°55.71 327.8 5.9 324 10.2
2005-01-13 07:14:43 51°13.754 2°55.703 328.5 6.3 324 10.1
2005-01-13 07:14:49 51°13.763 2°55.693 329.7 6.5 326 10.1
2005-01-13 07:14:53 51°13.77 2°55.687 330.7 7 327 10.2
2005-01-13 07:14:57 51°13.777 2°55.68 331.6 7.2 328 10.3
2005-01-13 07:15:04 51°13.79 2°55.668 332.5 7.6 330 10
2005-01-13 07:15:09 51°13.799 2°55.659 333.4 7.8 330 10.3
2005-01-13 07:15:14 51°13.809 2°55.65 333.8 8 329 10.4
2005-01-13 07:15:19 51°13.819 2°55.64 333.1 8.1 329 10.7
2005-01-13 07:15:24 51°13.829 2°55.631 332.9 8.4 329 10.6
2005-01-13 07:15:29 51°13.839 2°55.621 334 8.5 331 10.6
2005-01-13 07:15:34 51°13.85 2°55.613 335.9 8.5 331 10.5
2005-01-13 07:15:39 51°13.862 2°55.604 337 8.7 334 10.5
2005-01-13 07:15:43 51°13.871 2°55.598 338.2 9 336 10.7
2005-01-13 07:15:49 51°13.886 2°55.589 339.6 9.1 338 10.3
2005-01-13 07:15:54 51°13.898 2°55.581 340.3 9.1 337 10
2005-01-13 07:15:59 51°13.91 2°55.574 339.8 9.1 337 10.3
2005-01-13 07:16:02 51°13.917 2°55.569 339.6 9.3 337 10.2
2005-01-13 07:16:09 51°13.934 2°55.557 339.3 9.3 336 10.1
2005-01-13 07:16:14 51°13.945 2°55.549 339.1 9.4 335 9.9
2005-01-13 07:16:19 51°13.957 2°55.54 339.1 9.4 336 10.4
2005-01-13 07:16:23 51°13.966 2°55.533 338.9 9.4 336 10.2
2005-01-13 07:16:29 51°13.981 2°55.523 339.6 9.4 336 10.2
2005-01-13 07:16:34 51°13.992 2°55.514 340.3 9.5 336 10.4
2005-01-13 07:16:37 51°14 2°55.508 340 9.5 336 10.3
2005-01-13 07:16:44 51°14.016 2°55.497 339.8 9.5 337 10.1
2005-01-13 07:16:49 51°14.028 2°55.488 340.6 9.5 337 10
2005-01-13 07:16:53 51°14.038 2°55.482 340.9 9.5 336 9.8
2005-01-13 07:16:59 51°14.053 2°55.472 340.3 9.5 336 9.7
2005-01-13 07:17:03 51°14.062 2°55.465 339.9 9.6 336 9.6
2005-01-13 07:17:09 51°14.077 2°55.454 339.6 9.6 336 9.6
2005-01-13 07:17:14 51°14.089 2°55.446 339.6 9.6 336 9.6
2005-01-13 07:17:19 51°14.101 2°55.436 339.4 9.6 336 9.6
2005-01-13 07:17:21 51°14.106 2°55.433 339 9.8 335 9.7
2005-01-13 07:17:29 51°14.126 2°55.418 338.9 9.8 335 9.7
2005-01-13 07:17:33 51°14.135 2°55.41 338.4 9.8 334 10
2005-01-13 07:17:39 51°14.15 2°55.398 337.9 9.8 333 10.1
2005-01-13 07:17:43 51°14.159 2°55.39 336.1 9.8 332 10.9
2005-01-13 07:17:49 51°14.173 2°55.377 334.5 9.8 330 10.5
2005-01-13 07:17:53 51°14.183 2°55.368 333.8 9.8 329 10.9
2005-01-13 07:17:59 51°14.196 2°55.353 332.8 9.8 327 10.7
2005-01-13 07:18:01 51°14.201 2°55.348 330.9 9.8 325 10.3
2005-01-13 07:18:09 51°14.218 2°55.327 328.6 9.9 324 10.3
2005-01-13 07:18:14 51°14.228 2°55.313 326.1 9.9 324 10.5
2005-01-13 07:18:19 51°14.238 2°55.299 324.3 9.9 324 11.1
2005-01-13 07:18:24 51°14.248 2°55.283 321.6 9.8 316 10.6
2005-01-13 07:18:29 51°14.257 2°55.268 318.7 9.8 315 10.5
2005-01-13 07:18:33 51°14.264 2°55.255 317.8 9.8 313 10.5
2005-01-13 07:18:39 51°14.276 2°55.236 316.6 9.8 313 10.5
2005-01-13 07:18:43 51°14.283 2°55.223 316.2 9.8 312 10.5
2005-01-13 07:18:49 51°14.294 2°55.203 315.5 9.9 312 10.3
2005-01-13 07:18:53 51°14.3 2°55.19 314.8 9.8 311 10.3
2005-01-13 07:18:59 51°14.311 2°55.17 314.4 9.7 311 10.2
2005-01-13 07:19:03 51°14.318 2°55.157 314.4 9.8 311 10.3
2005-01-13 07:19:09 51°14.328 2°55.139 314.8 9.8 312 10.2
2005-01-13 07:19:14 51°14.338 2°55.123 315.4 9.6 312 10.1
2005-01-13 07:19:19 51°14.347 2°55.107 316.4 9.6 313 10.1
2005-01-13 07:19:23 51°14.354 2°55.095 317.3 9.5 314 10.1
2005-01-13 07:19:29 51°14.366 2°55.077 317.7 9.6 314 10.3
2005-01-13 07:19:34 51°14.375 2°55.062 317.9 9.6 314 10.7
2005-01-13 07:19:37 51°14.38 2°55.053 317.9 9.6 314 10.9
2005-01-13 07:19:44 51°14.393 2°55.032 317.8 9.4 316 10.7
2005-01-13 07:19:49 51°14.404 2°55.017 319.4 9.1 316 10.9
2005-01-13 07:19:53 51°14.412 2°55.007 321.4 9 320 10.8
2005-01-13 07:19:59 51°14.421 2°54.994 323.5 8.7 320 10.6
2005-01-13 07:20:04 51°14.431 2°54.981 325.1 8.4 320 10.4
2005-01-13 07:20:09 51°14.438 2°54.969 325.8 8.1 317 10.5
2005-01-13 07:20:14 51°14.446 2°54.957 324.4 7.9 316 10.5
2005-01-13 07:20:19 51°14.453 2°54.947 323.8 7.7 315 10.4
2005-01-13 07:20:24 51°14.46 2°54.935 323.5 6.9 315 10.3
2005-01-13 07:20:29 51°14.468 2°54.924 324 7.1 316 10.4
2005-01-13 07:20:33 51°14.472 2°54.917 324.5 7 317 10.3
2005-01-13 07:20:39 51°14.481 2°54.903 324.6 7.2 318 10.2
2005-01-13 07:20:44 51°14.489 2°54.892 325.7 7.4 318 10
2005-01-13 07:20:49 51°14.498 2°54.881 328.7 7.8 321 9.9
2005-01-13 07:20:53 51°14.506 2°54.872 330.8 8.1 321 9.7
2005-01-13 07:20:59 51°14.517 2°54.859 331.9 8.4 324 9.5
2005-01-13 07:21:03 51°14.525 2°54.849 333.4 8.9 323 9.6
2005-01-13 07:21:09 51°14.538 2°54.833 332.4 9.5 321 9.6
2005-01-13 07:21:14 51°14.55 2°54.819 331.6 9.5 321 9.6
2005-01-13 07:21:19 51°14.561 2°54.806 331.7 10.1 322 9.6
2005-01-13 07:21:23 51°14.571 2°54.795 332.6 10.5 324 9.9
2005-01-13 07:21:29 51°14.586 2°54.778 333.1 10.5 323 9.8
2005-01-13 07:21:33 51°14.596 2°54.766 332.6 11.1 324 9.5
2005-01-13 07:21:39 51°14.61 2°54.75 333.2 11.2 324 9.3
2005-01-13 07:21:42 51°14.618 2°54.741 334.5 11.1 325 9.3
2005-01-13 07:21:49 51°14.637 2°54.72 334.2 11.4 324 9.5
2005-01-13 07:21:53 51°14.648 2°54.708 333.8 11.6 325 9.2
2005-01-13 07:21:59 51°14.664 2°54.691 333.9 11.9 325 9
2005-01-13 07:22:04 51°14.678 2°54.676 333.9 12.1 326 9.4
2005-01-13 07:22:09 51°14.692 2°54.661 334.5 12.3 326 9.3
2005-01-13 07:22:14 51°14.707 2°54.645 334.1 12.3 326 9.5
2005-01-13 07:22:19 51°14.721 2°54.629 333.8 12.5 326 9.7
2005-01-13 07:22:23 51°14.732 2°54.616 333.3 12.6 325 9.4
2005-01-13 07:22:29 51°14.749 2°54.597 333.7 12.6 325 9.3
2005-01-13 07:22:33 51°14.76 2°54.585 333.8 12.6 325 9.3
2005-01-13 07:22:39 51°14.778 2°54.565 334.2 12.7 326 9.4
2005-01-13 07:22:45 51°14.796 2°54.546 333.8 12.8 326 9.1
2005-01-13 07:22:49 51°14.807 2°54.534 333.8 12.6 326 9.2
2005-01-13 07:22:54 51°14.822 2°54.517 333.7 12.8 325 9.4
2005-01-13 07:22:58 51°14.833 2°54.505 333.3 12.8 325 9.2
2005-01-13 07:23:03 51°14.849 2°54.488 333.3 12.8 326 9.1
2005-01-13 07:23:09 51°14.866 2°54.47 333.4 12.8 326 9.1
2005-01-13 07:23:13 51°14.877 2°54.457 334.2 12.9 325 8.9
2005-01-13 07:23:19 51°14.894 2°54.439 333.8 12.8 326 8.6
2005-01-13 07:23:22 51°14.903 2°54.43 334.2 12.6 326 8.7
2005-01-13 07:23:29 51°14.924 2°54.41 334.2 12.7 327 8.4
2005-01-13 07:23:33 51°14.935 2°54.397 334.6 12.4 328 8.1
2005-01-13 07:23:39 51°14.954 2°54.378 335 12.4 327 8.2
2005-01-13 07:23:45 51°14.97 2°54.361 334.7 12.4 325 8.3
2005-01-13 07:23:49 51°14.981 2°54.348 333.8 12.4 326 7.9
2005-01-13 07:23:53 51°14.993 2°54.335 333.8 12.4 325 7.8
2005-01-13 07:23:59 51°15.01 2°54.316 333.5 12.5 325 8
2005-01-13 07:24:03 51°15.022 2°54.304 333.1 12.6 326 8.1
2005-01-13 07:24:09 51°15.039 2°54.285 333.4 12.6 326 8.2
2005-01-13 07:24:13 51°15.051 2°54.273 333.8 12.6 326 8.3
2005-01-13 07:24:19 51°15.068 2°54.254 333.7 12.7 325 8.5
2005-01-13 07:24:22 51°15.077 2°54.244 333.7 12.7 326 8.5
2005-01-13 07:24:29 51°15.097 2°54.221 333.1 12.8 325 8.5
2005-01-13 07:24:34 51°15.112 2°54.205 333.3 12.8 324 8.5
2005-01-13 07:24:39 51°15.126 2°54.189 333.2 12.9 326 8.4
2005-01-13 07:24:44 51°15.142 2°54.173 333.3 12.9 326 8.6
2005-01-13 07:24:49 51°15.156 2°54.157 333.6 13.1 325 8.6
2005-01-13 07:24:54 51°15.173 2°54.14 333.6 12.9 326 8.8
2005-01-13 07:24:59 51°15.186 2°54.125 334.1 12.9 325 8.7
2005-01-13 07:25:04 51°15.202 2°54.107 334.3 13 325 8.8
2005-01-13 07:25:09 51°15.216 2°54.092 333.2 13 326 8.7
2005-01-13 07:25:14 51°15.231 2°54.075 333.6 13.1 326 8.9
2005-01-13 07:25:19 51°15.245 2°54.06 333.5 13.1 325 8.9
2005-01-13 07:25:23 51°15.257 2°54.047 333.2 12.8 325 8.7
2005-01-13 07:25:29 51°15.276 2°54.027 333.8 12.9 326 9
2005-01-13 07:25:33 51°15.289 2°54.013 334.2 12.9 326 9.1
2005-01-13 07:25:38 51°15.301 2°54 333.7 12.9 326 8.8
2005-01-13 07:25:45 51°15.324 2°53.979 335.3 12.6 329 8.5
2005-01-13 07:25:49 51°15.334 2°53.968 336.5 12 328 8.6
2005-01-13 07:25:53 51°15.345 2°53.955 334.7 12.5 326 9
2005-01-13 07:25:59 51°15.363 2°53.936 333.6 12.5 325 9.4
2005-01-13 07:26:04 51°15.375 2°53.922 333.4 12.5 326 9.3
2005-01-13 07:26:09 51°15.391 2°53.905 332.9 12.4 325 9.4
2005-01-13 07:26:13 51°15.402 2°53.892 333.6 12.6 326 9.7
2005-01-13 07:26:17 51°15.413 2°53.88 333.2 12.7 325 9.9
2005-01-13 07:26:23 51°15.432 2°53.86 333.7 12.8 326 9.8
2005-01-13 07:26:29 51°15.45 2°53.841 333.2 12.9 324 9.8
2005-01-13 07:26:33 51°15.461 2°53.829 333.6 12.9 327 10
2005-01-13 07:26:39 51°15.478 2°53.81 333.3 13.1 325 10.1
2005-01-13 07:26:42 51°15.488 2°53.8 333.6 12.8 326 10.2
2005-01-13 07:26:49 51°15.508 2°53.777 333.8 13.1 325 10.1
2005-01-13 07:26:54 51°15.525 2°53.759 334.2 13 326 10.4
2005-01-13 07:26:59 51°15.537 2°53.747 333.5 12.7 327 -999
2005-01-13 07:27:03 51°15.549 2°53.735 334.6 12.5 328 10
2005-01-13 07:27:09 51°15.567 2°53.715 335.7 12.8 326 10.2
2005-01-13 07:27:13 51°15.579 2°53.702 334.6 12.8 326 10.3
2005-01-13 07:27:19 51°15.597 2°53.683 333.8 12.8 325 10.3
2005-01-13 07:27:23 51°15.608 2°53.67 333.9 12.6 326 10.5
2005-01-13 07:27:29 51°15.625 2°53.652 333.8 12.9 326 10.4
2005-01-13 07:27:33 51°15.638 2°53.638 334.5 12.6 327 -999
2005-01-13 07:27:39 51°15.654 2°53.621 334.8 12.5 327 10.8
2005-01-13 07:27:44 51°15.67 2°53.605 334.6 12.8 327 10.7
2005-01-13 07:27:49 51°15.684 2°53.589 334.6 12.8 327 10.8
2005-01-13 07:27:53 51°15.695 2°53.577 334.4 12.6 325 10.6
2005-01-13 07:27:59 51°15.713 2°53.556 333.6 12.6 325 10.9
2005-01-13 07:28:04 51°15.727 2°53.541 333.8 12.6 326 11.1
2005-01-13 07:28:09 51°15.741 2°53.526 333.7 12.6 326 11
2005-01-13 07:28:13 51°15.753 2°53.514 333.8 12.4 327 10.7
2005-01-13 07:28:19 51°15.772 2°53.495 334.7 12.5 327 10.9
2005-01-13 07:28:22 51°15.781 2°53.487 336.4 12.7 328 11
2005-01-13 07:28:29 51°15.802 2°53.468 338.5 12.7 331 11
2005-01-13 07:28:34 51°15.818 2°53.455 340.1 12.7 331 11.1
2005-01-13 07:28:38 51°15.831 2°53.446 341.8 12.8 333 11.1
2005-01-13 07:28:42 51°15.845 2°53.436 343 12.9 336 11.1
2005-01-13 07:28:49 51°15.868 2°53.421 343.4 12.7 336 10.9
2005-01-13 07:28:54 51°15.885 2°53.409 344.5 12.9 337 11.7
2005-01-13 07:28:59 51°15.899 2°53.4 344.9 12.9 337 11.2
2005-01-13 07:29:04 51°15.914 2°53.387 346.1 12.5 338 11.1
2005-01-13 07:29:09 51°15.931 2°53.376 344.9 12.5 338 11
2005-01-13 07:29:13 51°15.944 2°53.366 344.5 12.8 335 11.5
2005-01-13 07:29:19 51°15.962 2°53.354 343.9 12.7 336 11.4
2005-01-13 07:29:22 51°15.972 2°53.346 344.4 12.8 336 11.5
2005-01-13 07:29:29 51°15.994 2°53.33 344.5 12.9 336 11.6
2005-01-13 07:29:34 51°16.011 2°53.319 344.3 12.6 336 11.3
2005-01-13 07:29:39 51°16.029 2°53.307 344.8 12.5 337 11.6
2005-01-13 07:29:42 51°16.036 2°53.3 344.7 12.9 337 11.5
2005-01-13 07:29:49 51°16.058 2°53.284 344.5 12.4 335 11.3
2005-01-13 07:29:54 51°16.074 2°53.272 343.7 12.6 335 11.7
2005-01-13 07:29:59 51°16.09 2°53.261 343.6 12.6 335 11.5
2005-01-13 07:30:04 51°16.105 2°53.25 344.5 12.6 336 11.9
2005-01-13 07:30:09 51°16.122 2°53.238 344.3 12.7 336 12
2005-01-13 07:30:14 51°16.137 2°53.228 344.4 12.8 336 11.8
2005-01-13 07:30:19 51°16.154 2°53.217 345 12.7 337 11.7
2005-01-13 07:30:24 51°16.17 2°53.206 345.4 12.7 336 11.8
2005-01-13 07:30:29 51°16.187 2°53.193 345.5 12.8 336 12
2005-01-13 07:30:33 51°16.199 2°53.184 344.3 12.8 336 11.9
2005-01-13 07:30:39 51°16.219 2°53.17 344.2 12.8 335 12
2005-01-13 07:30:44 51°16.236 2°53.159 343.7 12.8 336 12.3
2005-01-13 07:30:49 51°16.251 2°53.147 344.2 12.7 336 12.2
2005-01-13 07:30:54 51°16.268 2°53.135 343.9 12.8 337 11.8
2005-01-13 07:30:59 51°16.284 2°53.123 344.7 12.8 335 12.1
2005-01-13 07:31:03 51°16.298 2°53.114 344.2 13 336 12.2
2005-01-13 07:31:09 51°16.317 2°53.1 344 12.9 336 12.1
2005-01-13 07:31:13 51°16.33 2°53.091 344.4 13.1 336 12.4
2005-01-13 07:31:19 51°16.349 2°53.077 344.5 12.9 337 12.5
2005-01-13 07:31:24 51°16.365 2°53.066 344.7 12.5 337 11.9
2005-01-13 07:31:29 51°16.383 2°53.055 344.7 12.8 335 12.2
2005-01-13 07:31:34 51°16.399 2°53.045 344.4 12.4 337 12.2
2005-01-13 07:31:39 51°16.412 2°53.035 344.7 12.3 337 -999
2005-01-13 07:31:45 51°16.433 2°53.024 345.4 11.8 339 -999
2005-01-13 07:31:49 51°16.446 2°53.016 345.7 12.1 340 11.5
2005-01-13 07:31:54 51°16.459 2°53.007 345.4 11.9 338 11.5
2005-01-13 07:31:59 51°16.473 2°52.998 346.2 11.7 340 11.6
2005-01-13 07:32:03 51°16.485 2°52.99 346.1 11.7 338 11.5
2005-01-13 07:32:09 51°16.505 2°52.977 345.5 11.8 339 12
2005-01-13 07:32:13 51°16.517 2°52.97 345.6 12.2 337 11.9
2005-01-13 07:32:19 51°16.536 2°52.956 345.3 12.2 336 12
2005-01-13 07:32:23 51°16.549 2°52.947 344.5 12.5 336 12
2005-01-13 07:32:29 51°16.566 2°52.934 344.2 12.5 335 11.5
2005-01-13 07:32:33 51°16.579 2°52.926 344.3 12.2 338 11.3
2005-01-13 07:32:38 51°16.595 2°52.916 344.8 12.2 338 11.3
2005-01-13 07:32:44 51°16.613 2°52.902 344.4 12.2 338 11.5
2005-01-13 07:32:49 51°16.629 2°52.892 344.9 11.9 339 11.4
2005-01-13 07:32:54 51°16.645 2°52.882 345.7 12.4 338 10.9
2005-01-13 07:32:59 51°16.661 2°52.872 345.7 12.5 338 10.5
2005-01-13 07:33:04 51°16.677 2°52.861 346.2 12.2 337 10.3
2005-01-13 07:33:09 51°16.693 2°52.851 345.3 11.9 339 -999
2005-01-13 07:33:15 51°16.71 2°52.841 345.1 12.2 341 -999
2005-01-13 07:33:19 51°16.722 2°52.832 346.8 12.2 340 10.1
2005-01-13 07:33:24 51°16.737 2°52.824 345.2 11.9 338 9.3
2005-01-13 07:33:29 51°16.753 2°52.813 344.6 12.1 336 9.2
2005-01-13 07:33:33 51°16.766 2°52.803 344 12 335 9.1
2005-01-13 07:33:39 51°16.785 2°52.791 344.1 12.1 336 9
2005-01-13 07:33:43 51°16.797 2°52.782 344 12.2 338 9.7
2005-01-13 07:33:49 51°16.815 2°52.771 344.8 12.2 338 9.8
2005-01-13 07:33:53 51°16.828 2°52.763 344.4 12.2 338 9.8
2005-01-13 07:33:59 51°16.848 2°52.749 345 12.4 336 9.9
2005-01-13 07:34:04 51°16.864 2°52.738 344.3 12.5 336 9.5
2005-01-13 07:34:09 51°16.879 2°52.727 344 12.5 336 9.8
2005-01-13 07:34:13 51°16.891 2°52.718 343.8 12.2 337 9.4
2005-01-13 07:34:19 51°16.912 2°52.707 344.8 12.1 337 9.1
2005-01-13 07:34:24 51°16.927 2°52.696 345.2 12.5 339 9.2
2005-01-13 07:34:29 51°16.943 2°52.684 344.7 12.6 336 9.3
2005-01-13 07:34:34 51°16.959 2°52.674 344 12.6 336 9.3
2005-01-13 07:34:37 51°16.969 2°52.666 343.6 12.8 336 9.5
2005-01-13 07:34:43 51°16.989 2°52.653 344.1 12.7 336 9.7
2005-01-13 07:34:49 51°17.01 2°52.64 343.3 12.6 336 10
2005-01-13 07:34:53 51°17.022 2°52.63 343.8 12.7 336 9.8
2005-01-13 07:34:59 51°17.041 2°52.618 344.2 12.5 338 9.4
2005-01-13 07:35:04 51°17.056 2°52.607 344.6 12.7 336 9.5
2005-01-13 07:35:09 51°17.073 2°52.595 344.2 12.7 338 9.3
2005-01-13 07:35:13 51°17.086 2°52.587 343.8 12.5 337 9.1
2005-01-13 07:35:19 51°17.104 2°52.576 343.7 12.2 338 8.9
2005-01-13 07:35:24 51°17.12 2°52.565 345.7 12.4 338 9.1
2005-01-13 07:35:29 51°17.136 2°52.554 344.9 12.6 337 9.1
2005-01-13 07:35:33 51°17.15 2°52.544 343.7 12.8 336 9.2
2005-01-13 07:35:39 51°17.167 2°52.532 343.3 12.2 337 9.2
2005-01-13 07:35:44 51°17.183 2°52.522 343.6 12.1 337 9.1
2005-01-13 07:35:49 51°17.201 2°52.511 344.7 12 338 9.2
2005-01-13 07:35:53 51°17.213 2°52.504 344.9 12.2 339 -999
2005-01-13 07:35:59 51°17.231 2°52.491 345.4 12.2 339 9.4
2005-01-13 07:36:04 51°17.245 2°52.483 345.3 12 338 8.9
2005-01-13 07:36:09 51°17.262 2°52.472 345.4 11.9 339 9.1
2005-01-13 07:36:14 51°17.277 2°52.462 345.6 12.1 338 9.6
2005-01-13 07:36:19 51°17.292 2°52.452 344.4 12.2 338 46.2
2005-01-13 07:36:24 51°17.308 2°52.443 344.1 11.6 339 9.6
2005-01-13 07:36:29 51°17.325 2°52.434 346.1 11.5 340 3.9
2005-01-13 07:36:33 51°17.337 2°52.428 347.8 12 342 10.1
2005-01-13 07:36:39 51°17.355 2°52.417 347.5 12.1 339 9.8
2005-01-13 07:36:43 51°17.369 2°52.41 347.9 12.4 341 10
2005-01-13 07:36:49 51°17.387 2°52.4 348.7 12.5 342 9.9
2005-01-13 07:36:53 51°17.401 2°52.393 350.1 12.4 343 10.1
2005-01-13 07:36:59 51°17.421 2°52.386 351.5 12.5 344 10
2005-01-13 07:37:03 51°17.435 2°52.38 352.5 12.4 346 10
2005-01-13 07:37:09 51°17.455 2°52.373 352.9 12.3 347 -999
2005-01-13 07:37:14 51°17.47 2°52.368 352.8 12.4 348 9.7
2005-01-13 07:37:19 51°17.489 2°52.362 354.4 11.7 349 9.5
2005-01-13 07:37:25 51°17.506 2°52.356 353.4 12.2 346 -999
2005-01-13 07:37:29 51°17.52 2°52.35 353.7 12.2 348 9.7
2005-01-13 07:37:34 51°17.536 2°52.343 353.7 12.3 345 9.7
2005-01-13 07:37:39 51°17.552 2°52.337 353.4 12.1 346 9.8
2005-01-13 07:37:44 51°17.57 2°52.33 353.5 12.4 347 10.2
2005-01-13 07:37:49 51°17.586 2°52.325 353.2 12.6 346 10.1
2005-01-13 07:37:54 51°17.603 2°52.32 353.9 12.6 346 10.1
2005-01-13 07:37:59 51°17.622 2°52.315 356.1 12.2 350 9.8
2005-01-13 07:38:04 51°17.637 2°52.311 356.7 12.3 350 10
2005-01-13 07:38:09 51°17.653 2°52.307 358.5 12.2 355 -999
2005-01-13 07:38:14 51°17.671 2°52.304 358.9 12.1 354 9.9
2005-01-13 07:38:19 51°17.687 2°52.3 0.3 12.2 354 10
2005-01-13 07:38:23 51°17.701 2°52.297 359.5 12.4 353 9.9
2005-01-13 07:38:29 51°17.721 2°52.294 359.8 12.6 356 10
2005-01-13 07:38:33 51°17.735 2°52.289 359.9 12.4 349 10
2005-01-13 07:38:39 51°17.757 2°52.285 0.4 12.5 355 10.3
2005-01-13 07:38:43 51°17.77 2°52.284 358.5 12.6 353 10.1
2005-01-13 07:38:49 51°17.79 2°52.279 359.4 12.8 354 9.9
2005-01-13 07:38:53 51°17.803 2°52.276 359.6 12.3 353 9.4
2005-01-13 07:38:59 51°17.825 2°52.273 1.4 12.6 355 9.7
2005-01-13 07:39:04 51°17.842 2°52.268 359.6 12.7 352 9.9
2005-01-13 07:39:09 51°17.857 2°52.264   12.4 355 9.8
2005-01-13 07:39:14 51°17.876 2°52.262 358.5 12.4 355 9.7
2005-01-13 07:39:19 51°17.893 2°52.256 0.4 12.4 355 9.9
2005-01-13 07:39:24 51°17.91 2°52.253 359.6 12.5 352 10.1
2005-01-13 07:39:29 51°17.927 2°52.248 359.4 12.6 353 10
2005-01-13 07:39:34 51°17.945 2°52.244 357.8 12.7 349 10.1
2005-01-13 07:39:39 51°17.961 2°52.238 358.8 12.7 349 10.2
2005-01-13 07:39:45 51°17.984 2°52.235 357.3 12.4 352 10
2005-01-13 07:39:49 51°17.997 2°52.232 358.6 12.4 353 9.8
2005-01-13 07:39:54 51°18.015 2°52.23 359.6 12.4 353 -999
2005-01-13 07:39:59 51°18.029 2°52.228 0.5 11.8 359 9.4
2005-01-13 07:40:05 51°18.049 2°52.228 2.9 11.8 359 42.8
2005-01-13 07:40:09 51°18.062 2°52.226 1.4 11.7 356 9
2005-01-13 07:40:13 51°18.075 2°52.222 2.9 11.9 353 9.4
2005-01-13 07:40:19 51°18.095 2°52.219   12.1 348 9.9
2005-01-13 07:40:24 51°18.113 2°52.215 359.6 12.2 352 10.3
2005-01-13 07:40:29 51°18.128 2°52.21 359.7 12.4 352 10.7
2005-01-13 07:40:34 51°18.147 2°52.209 357.9 12.4 352 10.2
2005-01-13 07:40:39 51°18.162 2°52.204 0.2 12 357 38
2005-01-13 07:40:43 51°18.175 2°52.202 359.3 12.1 351 10.2
2005-01-13 07:40:49 51°18.196 2°52.2 359.7 12.1 351 10
2005-01-13 07:40:54 51°18.211 2°52.2 1.1 12.1 351 10
2005-01-13 07:40:58 51°18.224 2°52.203 5.8 11.8 2 10.1
2005-01-13 07:41:03 51°18.241 2°52.205 9.1 12.1 6 3.8
2005-01-13 07:41:09 51°18.261 2°52.207 12.8 12.2 6 10.5
2005-01-13 07:41:13 51°18.274 2°52.21 12.8 12.1 8 10.6
2005-01-13 07:41:17 51°18.288 2°52.213 15.1 12.2 8 11.1
2005-01-13 07:41:25 51°18.316 2°52.219 15 12.7 11 11.4
2005-01-13 07:41:29 51°18.33 2°52.224 15.9 12.6 10 11.4
2005-01-13 07:41:34 51°18.348 2°52.232 17.6 12.6 10 11
2005-01-13 07:41:39 51°18.366 2°52.238 20.4 12.6 13 11.3
2005-01-13 07:41:43 51°18.379 2°52.246 21.2 12.7 18 11
2005-01-13 07:41:49 51°18.4 2°52.255 20.8 12.7 14 10.7
2005-01-13 07:41:53 51°18.413 2°52.259 22.3 12.4 16 11
2005-01-13 07:41:59 51°18.431 2°52.271 22.6 12.7 14 10.8
2005-01-13 07:42:05 51°18.452 2°52.281 23.7 12.8 19 10.3
2005-01-13 07:42:09 51°18.465 2°52.284 23.2 12.4 22 10.3
2005-01-13 07:42:14 51°18.481 2°52.293 25 12.4 22 10.2
2005-01-13 07:42:19 51°18.499 2°52.299 24.1 12.7 15 10.6
2005-01-13 07:42:23 51°18.512 2°52.304 21.5 12.7 13 11.3
2005-01-13 07:42:29 51°18.533 2°52.313 21.2 12.6 15 11.7
2005-01-13 07:42:33 51°18.547 2°52.32 22 12.9 15 11.9
2005-01-13 07:42:38 51°18.564 2°52.326 21.7 13 16 11.9
2005-01-13 07:42:43 51°18.581 2°52.335 21.7 12.7 20 12
2005-01-13 07:42:49 51°18.6 2°52.345 24.2 12.8 15 11.6
2005-01-13 07:42:53 51°18.615 2°52.35 24.1 12.9 15 11.5
2005-01-13 07:42:59 51°18.636 2°52.359 22.4 12.7 14 11.6
2005-01-13 07:43:03 51°18.65 2°52.365 23.1 12.6 16 11.5
2005-01-13 07:43:09 51°18.669 2°52.374 23 12.8 20 11.4
2005-01-13 07:43:13 51°18.683 2°52.381 24.6 12.7 15 11
2005-01-13 07:43:19 51°18.702 2°52.391 23.7 12.8 17 10.8
2005-01-13 07:43:22 51°18.713 2°52.396 24.6 12.5 16 11
2005-01-13 07:43:29 51°18.737 2°52.408 25.4 12.6 20 11.4
2005-01-13 07:43:33 51°18.75 2°52.416 25.7 12.8 19 11.7
2005-01-13 07:43:39 51°18.771 2°52.426 25.4 12.7 17 12
2005-01-13 07:43:45 51°18.791 2°52.436 25.3 12.5 19 12.3
2005-01-13 07:43:49 51°18.803 2°52.446 26.1 12.9 19 12.2
2005-01-13 07:43:54 51°18.821 2°52.454 26.8 12.7 19 12.4
2005-01-13 07:43:59 51°18.836 2°52.465 28.6 12.7 19 12.2
2005-01-13 07:44:04 51°18.853 2°52.475 28.3 12.8 20 11.9
2005-01-13 07:44:09 51°18.869 2°52.485 28 12.5 23 12.2
2005-01-13 07:44:13 51°18.881 2°52.495 29 12.4 24 12.2
2005-01-13 07:44:19 51°18.901 2°52.506 31.2 12.7 24 12.3
2005-01-13 07:44:23 51°18.913 2°52.518 30.6 12.8 27 12.3
2005-01-13 07:44:29 51°18.933 2°52.53 29.2 12.6 21 12.2
2005-01-13 07:44:33 51°18.946 2°52.541 32.2 12.7 27 12.1
2005-01-13 07:44:39 51°18.965 2°52.55 30 12.8 18 12.1
2005-01-13 07:44:43 51°18.978 2°52.563 31 12.6 19 12.4
2005-01-13 07:44:49 51°18.998 2°52.572 28.9 12.7 15 12.3
2005-01-13 07:44:53 51°19.011 2°52.584 30.4 12.7 29 12.5
2005-01-13 07:44:58 51°19.027 2°52.592 29.9 12.3 24 52.1
2005-01-13 07:45:04 51°19.046 2°52.605 31.7 12.4 27 12.2
2005-01-13 07:45:09 51°19.06 2°52.62 31.7 12.6 26 11.9
2005-01-13 07:45:13 51°19.074 2°52.627 31.4 12.6 18 12.1
2005-01-13 07:45:18 51°19.09 2°52.64 30 12.4 19 12.4
2005-01-13 07:45:23 51°19.106 2°52.647 29.6 12.6 17 12.6
2005-01-13 07:45:29 51°19.126 2°52.66 28.7 12.4 23 13
2005-01-13 07:45:33 51°19.138 2°52.671 29.9 12.5 26 13.4
2005-01-13 07:45:39 51°19.158 2°52.685 28.8 12.6 20 13.3
2005-01-13 07:45:43 51°19.17 2°52.69 29 12.5 19 12.9
2005-01-13 07:45:49 51°19.19 2°52.704 29 12.5 20 13
2005-01-13 07:45:53 51°19.203 2°52.71 29.6 12.6 21 12.8
2005-01-13 07:45:59 51°19.223 2°52.723 30.4 12.7 26 13
2005-01-13 07:46:02 51°19.232 2°52.733 29.4 12.8 22 13
2005-01-13 07:46:09 51°19.256 2°52.746 31.3 12.6 25 13.1
2005-01-13 07:46:14 51°19.271 2°52.759 29 12.6 17 13.4
2005-01-13 07:46:19 51°19.287 2°52.769 31.7 12.6 17 13.6
2005-01-13 07:46:24 51°19.305 2°52.779 32.2 13 21 14
2005-01-13 07:46:29 51°19.32 2°52.791 29.4 12.6 26 14.2
2005-01-13 07:46:33 51°19.332 2°52.802 30.8 12.7 25 13.6
2005-01-13 07:46:39 51°19.352 2°52.812 32 12.7 25 13.6
2005-01-13 07:46:44 51°19.369 2°52.827 27.9 12.7 25 13.4
2005-01-13 07:46:49 51°19.386 2°52.833 29.3 12.5 22 13.8
2005-01-13 07:46:54 51°19.401 2°52.847 27.6 12.4 19 13.6
2005-01-13 07:46:59 51°19.418 2°52.854 31.1 12.8 22 13.6
2005-01-13 07:47:05 51°19.437 2°52.87 27.7 12.8 18 13.5
2005-01-13 07:47:09 51°19.451 2°52.875 30 12.7 28 13.9
2005-01-13 07:47:13 51°19.463 2°52.884 29 12.4 25 14
2005-01-13 07:47:19 51°19.482 2°52.9 29.9 12.7 23 13.7
2005-01-13 07:47:23 51°19.496 2°52.905 30.5 12.7 17 13.8
2005-01-13 07:47:29 51°19.514 2°52.919 28.3 12.4 24 13.9
2005-01-13 07:47:34 51°19.53 2°52.93 30.4 12.4 24 13.8
2005-01-13 07:47:39 51°19.548 2°52.939 30.3 12.8 20 14
2005-01-13 07:47:44 51°19.565 2°52.949 28.8 12.7 22 14.5
2005-01-13 07:47:49 51°19.58 2°52.961 27.9 12.6 19 14.4
2005-01-13 07:47:54 51°19.597 2°52.971 29.7 12.7 21 14.3
2005-01-13 07:47:59 51°19.612 2°52.982 28.7 12.7 21 14.2
2005-01-13 07:48:04 51°19.629 2°52.99 29.5 12.5 20 14.1
2005-01-13 07:48:09 51°19.645 2°53.003 28.9 12.4 25 14.4
2005-01-13 07:48:14 51°19.661 2°53.013 29.9 12.7 22 14.8
2005-01-13 07:48:19 51°19.677 2°53.026 30.3 12.6 22 14.1
2005-01-13 07:48:24 51°19.693 2°53.034 28.3 12.4 16 13.9
2005-01-13 07:48:29 51°19.709 2°53.043 29.6 12.6 26 14
2005-01-13 07:48:33 51°19.723 2°53.049 28.3 12.7 15 14.2
2005-01-13 07:48:39 51°19.743 2°53.061 26.8 12.6 22 14.8
2005-01-13 07:48:43 51°19.756 2°53.068 25.6 12.6 15 14.7
2005-01-13 07:48:49 51°19.776 2°53.08 27.1 12.6 21 14.9
2005-01-13 07:48:53 51°19.79 2°53.085 26 12.6 21 15.1
2005-01-13 07:48:59 51°19.81 2°53.096 25.2 12.5 20 15.3
2005-01-13 07:49:04 51°19.825 2°53.103 25.7 12.6 16 15.5
2005-01-13 07:49:09 51°19.842 2°53.112 24.9 12.8 21 15.4
2005-01-13 07:49:14 51°19.858 2°53.123 24.4 12.5 17 14.8
2005-01-13 07:49:19 51°19.876 2°53.129 26.4 12.6 22 15.3
2005-01-13 07:49:25 51°19.897 2°53.139 24.7 12.6 16 15.3
2005-01-13 07:49:29 51°19.91 2°53.146 24.6 12.6 19 15.4
2005-01-13 07:49:33 51°19.923 2°53.152 24 12.7 14 15.5
2005-01-13 07:49:38 51°19.94 2°53.16 23.4 12.3 16 15.4
2005-01-13 07:49:43 51°19.956 2°53.168 24.8 12.6 17 15.1
2005-01-13 07:49:49 51°19.977 2°53.177 25.7 12.7 18 15.3
2005-01-13 07:49:53 51°19.99 2°53.185 24.5 12.6 20 15.6
2005-01-13 07:49:59 51°20.01 2°53.194 25 12.6 17 15.4
2005-01-13 07:50:04 51°20.027 2°53.206 25 12.7 20 15.6
2005-01-13 07:50:09 51°20.045 2°53.21 25.7 12.6 18 15.6
2005-01-13 07:50:14 51°20.06 2°53.22 23.4 12.6 18 15.6
2005-01-13 07:50:19 51°20.078 2°53.228 26.1 12.6 22 15.6
2005-01-13 07:50:25 51°20.097 2°53.24 23.9 12.6 22 15.3
2005-01-13 07:50:29 51°20.111 2°53.247 26.8 12.8 22 15.2
2005-01-13 07:50:34 51°20.128 2°53.255 25.7 12.8 22 15.5
2005-01-13 07:50:39 51°20.144 2°53.262 26 12.7 20 15.9
2005-01-13 07:50:44 51°20.162 2°53.272 24.9 12.7 18 15.7
2005-01-13 07:50:49 51°20.178 2°53.281 25.8 12.8 17 15.7
2005-01-13 07:50:54 51°20.195 2°53.288 24.6 12.8 16 15.8
2005-01-13 07:50:59 51°20.212 2°53.296 23.1 12.7 14 15.9
2005-01-13 07:51:04 51°20.229 2°53.304 25.9 12.8 20 16.1
2005-01-13 07:51:09 51°20.245 2°53.311 24 12.9 12 15.9
2005-01-13 07:51:14 51°20.263 2°53.319 24.9 12.9 12 15.9
2005-01-13 07:51:19 51°20.279 2°53.328 24.7 12.6 15 15.8
2005-01-13 07:51:24 51°20.296 2°53.335 24.6 12.6 15 15.9
2005-01-13 07:51:29 51°20.312 2°53.345 24 12.6 15 15.9
2005-01-13 07:51:34 51°20.33 2°53.352 25.3 12.6 16 15.8
2005-01-13 07:51:39 51°20.346 2°53.363 24.6 12.6 16 15.5
2005-01-13 07:51:45 51°20.366 2°53.37 26.2 12.6 16 15.8
2005-01-13 07:51:49 51°20.38 2°53.378 26.2 12.5 22 15.8
2005-01-13 07:51:54 51°20.396 2°53.389 24.6 12.6 21 15.7
2005-01-13 07:51:57 51°20.406 2°53.391 25.8 12.5 15 15.4
2005-01-13 07:52:03 51°20.426 2°53.401 25.3 12.5 17 15.7
2005-01-13 07:52:09 51°20.445 2°53.411 24.6 12.6 20 15.9
2005-01-13 07:52:13 51°20.46 2°53.417 26.1 12.7 13 15.9
2005-01-13 07:52:18 51°20.476 2°53.427 23.6 12.6 12 16.1
2005-01-13 07:52:23 51°20.493 2°53.433 24.5 12.5 15 16
2005-01-13 07:52:29 51°20.513 2°53.444 26.6 12.5 22 16.3
2005-01-13 07:52:33 51°20.525 2°53.454 25.2 12.4 21 16.2
2005-01-13 07:52:39 51°20.546 2°53.464 25.1 12.4 16 15.9
2005-01-13 07:52:44 51°20.563 2°53.469 26.6 12.5 16 16.2
2005-01-13 07:52:49 51°20.578 2°53.481 24.3 12.2 18 16
2005-01-13 07:52:54 51°20.593 2°53.485 27.2 12.2 18 16
2005-01-13 07:52:59 51°20.606 2°53.492 24.7 10.9 13 16.2
2005-01-13 07:53:05 51°20.621 2°53.496 22.2 10.9 13 16.4
2005-01-13 07:53:09 51°20.63 2°53.497 18.8 9.1 7 16.4
2005-01-13 07:53:14 51°20.64 2°53.497 14.7 9.1 7 16.5
2005-01-13 07:53:19 51°20.649 2°53.495 11 6.8 359 16.5
2005-01-13 07:53:24 51°20.657 2°53.494 8.1 6.2 355 16.5
2005-01-13 07:53:29 51°20.664 2°53.492 5.6 5.8 355 16.6
2005-01-13 07:53:34 51°20.671 2°53.491 3.6 5.4 352 16.8
2005-01-13 07:53:39 51°20.678 2°53.489 2.2 5.1 354 16.5
2005-01-13 07:53:44 51°20.684 2°53.487 2 4.6 350 16.5
2005-01-13 07:53:49 51°20.688 2°53.485 2.1 4.3 358 16.1
2005-01-13 07:53:54 51°20.692 2°53.486 2.4 4.3 358 15.3
2005-01-13 07:53:59 51°20.697 2°53.485 3.1 2.8 352 14.7
2005-01-13 07:54:04 51°20.7 2°53.485 1.5 2.8 352 14.8
2005-01-13 07:54:09 51°20.703 2°53.482 358.5 2.1 337 15.4
2005-01-13 07:54:14 51°20.705 2°53.48 356.3 1.8 339 16.2
2005-01-13 07:54:19 51°20.706 2°53.48 353.8 1.8 339 16.6
2005-01-13 07:54:24 51°20.708 2°53.478 352 1.3 325 16.8
2005-01-13 07:54:29 51°20.709 2°53.475 351.1 1.2 338 17
2005-01-13 07:54:34 51°20.71 2°53.475 349.7 1.1 329 16.8
2005-01-13 07:54:39 51°20.71 2°53.475 347.6 1 337 16.4
2005-01-13 07:54:44 51°20.712 2°53.473 346.9 0.6 327 16.4
2005-01-13 07:54:49 51°20.713 2°53.472 346.6 0.6 334 16.5
2005-01-13 07:54:54 51°20.714 2°53.472 346 0.6 334 16.4
2005-01-13 07:54:59 51°20.714 2°53.471 345.3 0.6 328 16.1
2005-01-13 07:55:04 51°20.714 2°53.469 345.6 0.6 328 16
2005-01-13 07:55:09 51°20.714 2°53.468 347.2 0.6 328 16
2005-01-13 07:55:14 51°20.714 2°53.468 347.5 0.4 277 16
2005-01-13 07:55:19 51°20.714 2°53.468 346.9 0.5 278 16.1
2005-01-13 07:55:23 51°20.714 2°53.467 347.2 0.2 244 16.2
2005-01-13 07:55:29 51°20.715 2°53.466 348.3 0.3 242 16.4
2005-01-13 07:55:33 51°20.714 2°53.466 348.6 0.2 228 16.5
2005-01-13 07:55:37 51°20.714 2°53.466 349.6 0.1 203 16.6
2005-01-13 07:55:43 51°20.714 2°53.466 350.2 0.1 203 16.6
2005-01-13 07:55:49 51°20.713 2°53.465 350.7 0.3 237 16.6
2005-01-13 07:55:54 51°20.712 2°53.465 352 0.3 175 16.6
2005-01-13 07:55:58 51°20.712 2°53.465 353.6 0.4 185 16.6
2005-01-13 07:56:02 51°20.712 2°53.465 354.6 0.3 155 16.6
2005-01-13 07:56:09 51°20.712 2°53.465 356.1 0.4 190 16.6
2005-01-13 07:56:13 51°20.711 2°53.465 356.8 0.3 162 16.5
2005-01-13 07:56:19 51°20.71 2°53.465 358.3 0.6 155 16.6
2005-01-13 07:56:25 51°20.709 2°53.466 0.5 0.6 194 16.3
2005-01-13 07:56:29 51°20.708 2°53.465 2.9 0.5 197 16
2005-01-13 07:56:34 51°20.708 2°53.465 6.1 0.7 133 16
2005-01-13 07:56:38 51°20.707 2°53.467 8.7 0.7 170 16
2005-01-13 07:56:43 51°20.706 2°53.466 9.4 0.8 201 15.8
2005-01-13 07:56:49 51°20.706 2°53.466 11.8 0.8 171 15.6
2005-01-13 07:56:53 51°20.705 2°53.467 15 0.8 158 15.9
2005-01-13 07:56:59 51°20.704 2°53.467 16.8 0.8 175 16
2005-01-13 07:57:04 51°20.703 2°53.469 17.8 0.9 171 15.8
2005-01-13 07:57:09 51°20.702 2°53.468 20 0.6 211 15.5
2005-01-13 07:57:14 51°20.703 2°53.467 22.7 0.6 211 15.7
2005-01-13 07:57:19 51°20.703 2°53.468 24.3 0.3 352 15.9
2005-01-13 07:57:24 51°20.705 2°53.47 24.8 0.3 352 16.2
2005-01-13 07:57:29 51°20.708 2°53.472 26.5 1.9 24 16.5
2005-01-13 07:57:34 51°20.712 2°53.474 26.7 2.8 25 16.7
2005-01-13 07:57:39 51°20.718 2°53.478 25.2 2.8 25 16.7
2005-01-13 07:57:44 51°20.724 2°53.48 22.9 4.9 10 16.9
2005-01-13 07:57:49 51°20.733 2°53.48 18.2 5.3 9 17
2005-01-13 07:57:54 51°20.741 2°53.481 12.9 6 5 16.6
2005-01-13 07:57:59 51°20.751 2°53.481 8.1 6.5 355 16.1
2005-01-13 07:58:05 51°20.764 2°53.477 3.6 7.6 350 15.8
2005-01-13 07:58:09 51°20.774 2°53.474 0.8 8.5 350 15.6
2005-01-13 07:58:13 51°20.784 2°53.469 358.5 9.7 346 15.7
2005-01-13 07:58:19 51°20.801 2°53.462 356.2 9.7 346 16.3
2005-01-13 07:58:24 51°20.815 2°53.458 354.9 10.9 347 16
2005-01-13 07:58:29 51°20.831 2°53.456 355.4 10.9 347 15.7
2005-01-13 07:58:33 51°20.843 2°53.453 357.8 10.8 353 15.4
2005-01-13 07:58:38 51°20.859 2°53.45 359.3 11 352 15.3
2005-01-13 07:58:45 51°20.88 2°53.443 359.7 11.2 350 15.2
2005-01-13 07:58:49 51°20.893 2°53.442 0.1 11.3 353 15.5
2005-01-13 07:58:53 51°20.906 2°53.438 359.8 11.7 351 15.8
2005-01-13 07:58:57 51°20.919 2°53.436 2.1 11.9 355 16.1
2005-01-13 07:59:04 51°20.942 2°53.433 3.3 11.9 355 16.6
2005-01-13 07:59:09 51°20.959 2°53.431 5.4 12.2   17.3
2005-01-13 07:59:14 51°20.976 2°53.432 6.5 12.4   16.8
2005-01-13 07:59:19 51°20.992 2°53.432 8.3 12.6   16.7
2005-01-13 07:59:25 51°21.014 2°53.434 8.7 12.1 1 16.1
2005-01-13 07:59:29 51°21.028 2°53.435 9.9 12.3   33.1
2005-01-13 07:59:33 51°21.042 2°53.435 10.4 12.4 1 34.2
2005-01-13 07:59:39 51°21.061 2°53.436 10.4 12.4 3 16.3
2005-01-13 07:59:44 51°21.079 2°53.441 11.7 12.4 7 16.4
2005-01-13 07:59:49 51°21.096 2°53.441 13.6 12.5 4 16.4
2005-01-13 07:59:54 51°21.113 2°53.444 13 12.6 6 16.1
2005-01-13 07:59:59 51°21.131 2°53.445 13.1 12.4 3 16.2
2005-01-13 08:00:03 51°21.145 2°53.448 12.7 12.5 5 16.1
2005-01-13 08:00:09 51°21.166 2°53.449 12.6 12.6 3 16.3
2005-01-13 08:00:13 51°21.179 2°53.451 12.3 12.5 3 15.9
2005-01-13 08:00:19 51°21.2 2°53.453 13.8 12.5 4 16
2005-01-13 08:00:22 51°21.21 2°53.454 12.3 12.5 3 16
2005-01-13 08:00:29 51°21.234 2°53.456 13.1 12.7 6 15.9
2005-01-13 08:00:34 51°21.253 2°53.461 13 12.4 6 15.5
2005-01-13 08:00:39 51°21.269 2°53.462 13.2 12.5 2 15.7
2005-01-13 08:00:43 51°21.283 2°53.464 14.9 12.5 6 15.8
2005-01-13 08:00:49 51°21.304 2°53.466 14.2 12.6 3 15.9
2005-01-13 08:00:53 51°21.318 2°53.468 13.8 12.4 4 15.9
2005-01-13 08:00:59 51°21.339 2°53.47 13.7 12.3 5 16.1
2005-01-13 08:01:02 51°21.35 2°53.473 13.6 12.4 4 16.1
2005-01-13 08:01:09 51°21.374 2°53.474 14.7 12.6 4 16.2
2005-01-13 08:01:14 51°21.391 2°53.478 13.5 12.6 4 16
2005-01-13 08:01:19 51°21.409 2°53.48 13 12.5 3 15.9
2005-01-13 08:01:24 51°21.425 2°53.483 14.5 12.6 4 16.6
2005-01-13 08:01:29 51°21.442 2°53.485 14.8 12.5 7 15.7
2005-01-13 08:01:34 51°21.459 2°53.488 15.9 12.3 6 15.5
2005-01-13 08:01:39 51°21.477 2°53.492 14.5 12.4 5 15.5
2005-01-13 08:01:44 51°21.494 2°53.495 13.9 12.5 5 15.6
2005-01-13 08:01:49 51°21.512 2°53.498 14 12.4 4 15.8
2005-01-13 08:01:54 51°21.529 2°53.5 14.5 12.4 6 16.2
2005-01-13 08:01:59 51°21.546 2°53.501 15.1 12.6 6 16.3
2005-01-13 08:02:05 51°21.567 2°53.506 14.6 12.6 4 16.5
2005-01-13 08:02:09 51°21.58 2°53.51 15.5 12.6 6 16.3
2005-01-13 08:02:14 51°21.598 2°53.51 16.3 12.5 8 16.4
2005-01-13 08:02:19 51°21.615 2°53.517 15.6 12.5 10 16.6
2005-01-13 08:02:24 51°21.632 2°53.521 16.4 12.3 6 16.1
2005-01-13 08:02:29 51°21.65 2°53.526 17.4 12.1 11 16.5
2005-01-13 08:02:33 51°21.663 2°53.529 18.1 12.3 8 16.5
2005-01-13 08:02:39 51°21.683 2°53.536 16.2 12.2 9 16.3
2005-01-13 08:02:43 51°21.697 2°53.535 17 12.4 3 15.9
2005-01-13 08:02:49 51°21.716 2°53.538 15.8 12.1 8 15.7
2005-01-13 08:02:54 51°21.733 2°53.543 16.4 12.2 10 16.2
2005-01-13 08:02:59 51°21.751 2°53.549 16.4 12.3 6 16.7
2005-01-13 08:03:04 51°21.768 2°53.549 18 12.2 12 17.7
2005-01-13 08:03:09 51°21.784 2°53.555 15.4 12.2 12 17.5
2005-01-13 08:03:14 51°21.801 2°53.559 16.6 12.2 7 17.7
2005-01-13 08:03:19 51°21.819 2°53.564 16.7 12.4 8 17.7
2005-01-13 08:03:25 51°21.84 2°53.568 15.7 12.6 5 17.8
2005-01-13 08:03:29 51°21.854 2°53.568 16.6 12.5 10 18.5
2005-01-13 08:03:33 51°21.867 2°53.573 15.6 12.4 8 18.4
2005-01-13 08:03:39 51°21.888 2°53.579 15.6 12.4 10 18.6
2005-01-13 08:03:44 51°21.905 2°53.582 16.6 12.4 6 18.2
2005-01-13 08:03:49 51°21.923 2°53.586 16.8 12.4 10 18.6
2005-01-13 08:03:54 51°21.939 2°53.591 16 12.5 9 18.4
2005-01-13 08:03:57 51°21.95 2°53.592 17 12.6 8 18.7
2005-01-13 08:04:02 51°21.967 2°53.596 16.3 12.5 9 18.7
2005-01-13 08:04:09 51°21.991 2°53.601 16.6 12.4 7 18.8
2005-01-13 08:04:14 51°22.008 2°53.603 16.4 12.2 8 19.2
2005-01-13 08:04:19 51°22.024 2°53.609 16.6 12.2 8 19.2
2005-01-13 08:04:21 51°22.032 2°53.61 16.8 12.6 4 18.6
2005-01-13 08:04:29 51°22.059 2°53.617 17.4 12.6 11 18.8
2005-01-13 08:04:34 51°22.076 2°53.621 15.4 12.3 6 18.6
2005-01-13 08:04:39 51°22.095 2°53.626 15.1 12.3 6 18.9
2005-01-13 08:04:44 51°22.111 2°53.627 17 12.7 6 19
2005-01-13 08:04:49 51°22.128 2°53.629 13.7 12.8 2 19
2005-01-13 08:04:53 51°22.143 2°53.631 15.7 12.5 7 19.2
2005-01-13 08:04:57 51°22.156 2°53.634 14.5 12.5 5 19.3
2005-01-13 08:05:05 51°22.184 2°53.64 16.6 12.7 8 20
2005-01-13 08:05:09 51°22.197 2°53.643 15.8 12.7 5 20.3
2005-01-13 08:05:14 51°22.215 2°53.648 15.2 12.3 7 20.3
2005-01-13 08:05:19 51°22.232 2°53.651 16.6 12.6 10 20.7
2005-01-13 08:05:24 51°22.249 2°53.655 16.6 12.6 9 20.6
2005-01-13 08:05:29 51°22.266 2°53.66 16.6 12.6 9 20.5
2005-01-13 08:05:33 51°22.28 2°53.663 17 12.4 9 20.8
2005-01-13 08:05:39 51°22.301 2°53.668 17.3 12.6 9 21.3
2005-01-13 08:05:45 51°22.321 2°53.672 15.9 12.6 9 21.7
2005-01-13 08:05:49 51°22.335 2°53.675 15.5 12.4 8 21.7
2005-01-13 08:05:54 51°22.352 2°53.678 15.9 12.6 9 21.9
2005-01-13 08:05:59 51°22.37 2°53.682 15.9 12.5 8 22.1
2005-01-13 08:06:03 51°22.384 2°53.685 17 12.5 9 21.9
2005-01-13 08:06:09 51°22.404 2°53.692 15.2 12.4 5 21.3
2005-01-13 08:06:13 51°22.417 2°53.694 18.3 12.3 10 21.9
2005-01-13 08:06:17 51°22.431 2°53.697 15.5 12.3 5 22.2
2005-01-13 08:06:23 51°22.452 2°53.702 16.8 12.4 9 22.4
2005-01-13 08:06:29 51°22.472 2°53.705 16.3 12.6 6 22.9
2005-01-13 08:06:33 51°22.486 2°53.712 16.1 12.5 13 23.3
2005-01-13 08:06:39 51°22.506 2°53.718 17.3 12.4 8 23.1
2005-01-13 08:06:44 51°22.523 2°53.723 19.5 12.4 11 22.9
2005-01-13 08:06:49 51°22.54 2°53.731 17.6 12.4 7 22.8
2005-01-13 08:06:54 51°22.558 2°53.732 21.5 12.6 11 22.7
2005-01-13 08:06:59 51°22.574 2°53.744 18.3 12.3 12 22.5
2005-01-13 08:07:04 51°22.59 2°53.747 23.8 12.4 20 22.3
2005-01-13 08:07:09 51°22.606 2°53.757 20.9 12.4 20 22.6
2005-01-13 08:07:13 51°22.62 2°53.763 22.7 12.6 17 22.4
2005-01-13 08:07:19 51°22.641 2°53.773 24.4 12.5 15 22.8
2005-01-13 08:07:23 51°22.653 2°53.784 27.5 12.7 27 22.7
2005-01-13 08:07:29 51°22.673 2°53.792 27.5 12.6 22 22.5
2005-01-13 08:07:34 51°22.688 2°53.806 27.2 12.4 29 22.6
2005-01-13 08:07:39 51°22.704 2°53.814 31.5 12.6 21 22.3
2005-01-13 08:07:44 51°22.72 2°53.825 27.9 12.2 22 22.5
2005-01-13 08:07:49 51°22.736 2°53.839 29.2 12.2 23 22.3
2005-01-13 08:07:54 51°22.753 2°53.844 31 12.2 23 22.6
2005-01-13 08:07:59 51°22.767 2°53.861 28.1 12.2 25 22.3
2005-01-13 08:08:05 51°22.786 2°53.871 33.2 12.5 21 22.5
2005-01-13 08:08:09 51°22.798 2°53.883 29.4 12.4 21 22.4
2005-01-13 08:08:14 51°22.815 2°53.891 34 12.4 31 22.6
2005-01-13 08:08:19 51°22.83 2°53.907 30 12.6 16 21.8
2005-01-13 08:08:24 51°22.845 2°53.917 32.9 12.2 24 21.3
2005-01-13 08:08:29 51°22.861 2°53.93 33.4 12.4 27 21
2005-01-13 08:08:33 51°22.874 2°53.937 32.6 12.6 21 22.2
2005-01-13 08:08:39 51°22.893 2°53.952 29.7 12.2 25 21.7
2005-01-13 08:08:45 51°22.911 2°53.964 31.3 12.2 26 20.7
2005-01-13 08:08:49 51°22.923 2°53.973 30.8 12.4 23 16.7
2005-01-13 08:08:54 51°22.938 2°53.99 32.2 12.2 31 19.6
2005-01-13 08:08:59 51°22.955 2°53.999 36.7 12.8 35 18.3
2005-01-13 08:09:03 51°22.966 2°54.011 31.6 11.9 29 21.8
2005-01-13 08:09:09 51°22.984 2°54.026 35.8 12.3 34 22.1
2005-01-13 08:09:13 51°22.996 2°54.037 34.6 12.6 27 22
2005-01-13 08:09:19 51°23.015 2°54.051 33.6 12.3 29 21.2
2005-01-13 08:09:23 51°23.027 2°54.064 32.8 12.3 24 20.5
2005-01-13 08:09:29 51°23.045 2°54.075 35.1 12.3 24 21.7
2005-01-13 08:09:33 51°23.056 2°54.089 34.1 12.3 34 22.1
2005-01-13 08:09:39 51°23.075 2°54.103 36.5 12.7 27 21.7
2005-01-13 08:09:45 51°23.093 2°54.12 34.3 12.1 30 21.7
2005-01-13 08:09:49 51°23.104 2°54.134 36.4 12.7 34 21.2
2005-01-13 08:09:54 51°23.12 2°54.144 34.5 12.9 33 20.1
2005-01-13 08:09:57 51°23.128 2°54.154 35.4 12.2 38 20.4
2005-01-13 08:10:02 51°23.144 2°54.165 36.5 12.3 27 20.8
2005-01-13 08:10:09 51°23.164 2°54.183 34.1 12.3 35 20.8
2005-01-13 08:10:14 51°23.18 2°54.196 35.2 12.5 25 18.8
2005-01-13 08:10:19 51°23.195 2°54.209 34.5 12.5 25 20
2005-01-13 08:10:25 51°23.213 2°54.225 32.4 12.3 22 19.8
2005-01-13 08:10:29 51°23.225 2°54.235 35.5 12.7 35 18.9
2005-01-13 08:10:34 51°23.241 2°54.249 34.2 12.1 24 20
2005-01-13 08:10:39 51°23.255 2°54.261 35.5 12.1 32 20.1
2005-01-13 08:10:44 51°23.27 2°54.277 36.5 12.6 30 18.4
2005-01-13 08:10:49 51°23.286 2°54.288 37 12.6 30 19.9
2005-01-13 08:10:53 51°23.297 2°54.302 36.6 12.7 34 19.6
2005-01-13 08:10:57 51°23.31 2°54.31 34 12.5 23 18.6
2005-01-13 08:11:04 51°23.331 2°54.327 34.5 12.3 29 19.9
2005-01-13 08:11:09 51°23.347 2°54.34 34.3 12.6 29 19
2005-01-13 08:11:14 51°23.361 2°54.356 32.3 12.2 31 19.8
2005-01-13 08:11:19 51°23.376 2°54.367 36.1 12.1 28 19.6
2005-01-13 08:11:24 51°23.392 2°54.38 34.8 12.6 28 18.2
2005-01-13 08:11:29 51°23.407 2°54.393 34.4 12.6 28 19.9
2005-01-13 08:11:33 51°23.419 2°54.404 34.6 12.3 29 19.6
2005-01-13 08:11:39 51°23.437 2°54.42 35.4 12.4 27 19.3
2005-01-13 08:11:43 51°23.449 2°54.43 35.4 12.3 28 18
2005-01-13 08:11:49 51°23.467 2°54.447 34.6 12.4 26 19.7
2005-01-13 08:11:53 51°23.48 2°54.455 35.1 12.4 24 19.8
2005-01-13 08:11:59 51°23.499 2°54.471 33.7 12.4 30 19.7
2005-01-13 08:12:02 51°23.507 2°54.48 33.9 12.4 27 19.6
2005-01-13 08:12:09 51°23.528 2°54.498 33.8 12.4 31 19.3
2005-01-13 08:12:14 51°23.543 2°54.511 35.8 12.4 31 17.8
2005-01-13 08:12:19 51°23.558 2°54.525 36.5 12.6 35 19.8
2005-01-13 08:12:22 51°23.567 2°54.535 36.1 12.3 30 18.8
2005-01-13 08:12:29 51°23.586 2°54.558 38.8 12.3 37 19.6
2005-01-13 08:12:33 51°23.599 2°54.568 39.9 12.8 28 19.6
2005-01-13 08:12:39 51°23.616 2°54.586 38.4 12.4 34 19.2
2005-01-13 08:12:44 51°23.631 2°54.6 39.1 12.4 32 20
2005-01-13 08:12:49 51°23.644 2°54.617 39.6 12.8 38 19.4
2005-01-13 08:12:54 51°23.659 2°54.631 38.3 12.6 28 19.8
2005-01-13 08:12:59 51°23.673 2°54.649 40.3 12.5 40 18.9
2005-01-13 08:13:04 51°23.688 2°54.663 41.5 12.6 35 20.1
2005-01-13 08:13:09 51°23.702 2°54.681 40 12.4 36 19.5
2005-01-13 08:13:14 51°23.718 2°54.694 42 13 31 20.1
2005-01-13 08:13:19 51°23.731 2°54.71 38.4 12.5 34 20.4
2005-01-13 08:13:24 51°23.746 2°54.725 41 12.2 38 19.9
2005-01-13 08:13:29 51°23.759 2°54.742 39.1 12.2 38 20
2005-01-13 08:13:33 51°23.771 2°54.753 40.1 12.4 33 19.5
2005-01-13 08:13:39 51°23.788 2°54.773 39.7 12.6 35 19.6
2005-01-13 08:13:44 51°23.802 2°54.788 40.1 12.7 37 19.6
2005-01-13 08:13:49 51°23.815 2°54.808 40.1 12.7 37 19.2
2005-01-13 08:13:53 51°23.828 2°54.815 43.4 12.3 30 19.8
2005-01-13 08:13:59 51°23.844 2°54.837 36.7 12.3 30 20
2005-01-13 08:14:04 51°23.859 2°54.85 41 12.3 33 19.6
2005-01-13 08:14:09 51°23.874 2°54.866 38.4 12.4 29 19.6
2005-01-13 08:14:14 51°23.889 2°54.878 38.6 12.1 32 19.7
2005-01-13 08:14:19 51°23.901 2°54.897 38.3 12.2 27 20.4
2005-01-13 08:14:23 51°23.914 2°54.904 40.2 12.3 26 20.7
2005-01-13 08:14:29 51°23.93 2°54.926 37.1 12.1 34 20.7
2005-01-13 08:14:33 51°23.943 2°54.936 41.4 12.6 31 21.2
2005-01-13 08:14:39 51°23.958 2°54.956 39.9 12.2 36 20.7
2005-01-13 08:14:44 51°23.971 2°54.972 39.9 12 38 20.8
2005-01-13 08:14:49 51°23.987 2°54.986 44.2 12.6 40 21.1
2005-01-13 08:14:54 51°24 2°55.001 39 12.5 28 21.2
2005-01-13 08:14:59 51°24.013 2°55.018 39.7 12 38 21
2005-01-13 08:15:05 51°24.031 2°55.036 40.7 12.5 30 20.7
2005-01-13 08:15:09 51°24.042 2°55.048 39.6 12.6 36 20.7
2005-01-13 08:15:14 51°24.056 2°55.063 39.5 12.4 33 21
2005-01-13 08:15:19 51°24.07 2°55.08 39.1 12.3 33 20.9
2005-01-13 08:15:24 51°24.086 2°55.093 42.4 12.3 33 21
2005-01-13 08:15:29 51°24.1 2°55.11 34.8 12.5 21 20.4
2005-01-13 08:15:33 51°24.112 2°55.117 37.8 12.1 31 20.5
2005-01-13 08:15:39 51°24.129 2°55.139 38.5 12.3 39 20.8
2005-01-13 08:15:44 51°24.142 2°55.153 37.6 12.4 30 20.4
2005-01-13 08:15:49 51°24.158 2°55.167 41 12.2 37 20.5
2005-01-13 08:15:54 51°24.171 2°55.186 38 12.3 29 20.7
2005-01-13 08:15:59 51°24.186 2°55.199 40.6 12.5 33 21
2005-01-13 08:16:05 51°24.203 2°55.213 38.3 12.3 35 21.7
2005-01-13 08:16:09 51°24.213 2°55.231 35.7 12 32 20.6
2005-01-13 08:16:14 51°24.228 2°55.243 42.3 12.2 42 21.3
2005-01-13 08:16:19 51°24.242 2°55.259 37.1 12.1 31 21.9
2005-01-13 08:16:24 51°24.256 2°55.274 40.8 11.9 36 21.5
2005-01-13 08:16:29 51°24.27 2°55.289 39.4 12.1 31 21.7
2005-01-13 08:16:33 51°24.281 2°55.302 40.1 12.1 37 22.1
2005-01-13 08:16:39 51°24.299 2°55.319 41.4 12.3 35 22.6
2005-01-13 08:16:43 51°24.309 2°55.332 38.2 12.1 35 22.5
2005-01-13 08:16:49 51°24.326 2°55.352 42.4 12.4 38 22.5
2005-01-13 08:16:53 51°24.338 2°55.362 40.5 12.5 30 22.3
2005-01-13 08:16:59 51°24.354 2°55.382 38.9 12.1 39 22.5
2005-01-13 08:17:03 51°24.365 2°55.396 42 12.5 39 22.4
2005-01-13 08:17:09 51°24.382 2°55.416 44.1 12.7 42 23.1
2005-01-13 08:17:13 51°24.392 2°55.431 42.3 12.3 42 23.3
2005-01-13 08:17:19 51°24.408 2°55.451 45.1 12.5 40 23.4
2005-01-13 08:17:25 51°24.424 2°55.472 44.3 12.6 37 23.6
2005-01-13 08:17:29 51°24.435 2°55.487 44.2 12.3 39 23.5
2005-01-13 08:17:33 51°24.446 2°55.5 45.8 12.7 40 23.7
2005-01-13 08:17:39 51°24.46 2°55.525 44.5 12.6 39 23.5
2005-01-13 08:17:43 51°24.473 2°55.535 48.5 12.4 35 23.9
2005-01-13 08:17:49 51°24.487 2°55.559 44 12.3 41 23.8
2005-01-13 08:17:53 51°24.498 2°55.572 47 12.5 37 24
2005-01-13 08:17:59 51°24.513 2°55.594 44.2 12.3 39 24.1
2005-01-13 08:18:03 51°24.524 2°55.608 45.5 12.5 39 23.9
2005-01-13 08:18:09 51°24.541 2°55.626 44.9 12.5 40 24.4
2005-01-13 08:18:13 51°24.55 2°55.643 43.1 11.9 45 24.4
2005-01-13 08:18:19 51°24.566 2°55.661 48.1 12.5 43 24.2
2005-01-13 08:18:22 51°24.574 2°55.673 43.1 12.5 33 24
2005-01-13 08:18:29 51°24.591 2°55.697 45.1 11.5 42 24
2005-01-13 08:18:33 51°24.6 2°55.714 48.4 12.8 46 24.4
2005-01-13 08:18:39 51°24.618 2°55.731 42.1 12.8 46 -999
2005-01-13 08:18:43 51°24.627 2°55.747 44.2 12.2 48 23.3
2005-01-13 08:18:49 51°24.644 2°55.766 45.5 12.5 33 22.9
2005-01-13 08:18:53 51°24.654 2°55.78 44.2 12.2 40 22.6
2005-01-13 08:18:58 51°24.668 2°55.795 42.6 11.9 35 22.5
2005-01-13 08:19:03 51°24.681 2°55.814 46.2 12.3 41 23
2005-01-13 08:19:09 51°24.695 2°55.835 44.2 12.2 35 22.9
2005-01-13 08:19:13 51°24.707 2°55.847 46.3 12.4 38 23
2005-01-13 08:19:17 51°24.718 2°55.861 42.8 12.1 35 23.3
2005-01-13 08:19:23 51°24.732 2°55.884 46.6 12.5 44 23.4
2005-01-13 08:19:29 51°24.75 2°55.901 42.5 12.6 28 22.9
2005-01-13 08:19:34 51°24.763 2°55.917 41.4 12.2 39 23
2005-01-13 08:19:39 51°24.776 2°55.934 42.8 11.9 36 23.1
2005-01-13 08:19:43 51°24.786 2°55.95 46.4 12.5 45 23.3
2005-01-13 08:19:49 51°24.802 2°55.969 43 12.4 32 23.5
2005-01-13 08:19:53 51°24.812 2°55.983 45.9 12.1 44 23.8
2005-01-13 08:19:57 51°24.823 2°55.997 45.8 12.5 37 24.2
2005-01-13 08:20:03 51°24.84 2°56.017 43.2 12.2 38 24.6
2005-01-13 08:20:09 51°24.856 2°56.04 45.5 12.8 42 24.5
2005-01-13 08:20:13 51°24.868 2°56.051 43.1 12.5 33 24.5
2005-01-13 08:20:19 51°24.883 2°56.072 45.8 12.5 46 24.9
2005-01-13 08:20:23 51°24.894 2°56.087 42.8 12.5 36 24.7
2005-01-13 08:20:29 51°24.91 2°56.109 43.5 12.6 40 24.7
2005-01-13 08:20:34 51°24.922 2°56.128 46.9 12.7 42 24.5
2005-01-13 08:20:39 51°24.938 2°56.14 45.7 12.3 34 24.7
2005-01-13 08:20:44 51°24.95 2°56.16 42.8 12 36 24.6
2005-01-13 08:20:49 51°24.965 2°56.175 44.7 12.8 37 24.6
2005-01-13 08:20:54 51°24.978 2°56.195 41.9 12.6 34 24.5
2005-01-13 08:20:59 51°24.993 2°56.209 46.4 12.5 38 24.6
2005-01-13 08:21:03 51°25.003 2°56.224 41.3 12.2 40 24.9
2005-01-13 08:21:09 51°25.019 2°56.245 42.4 12.2 39 24.5
2005-01-13 08:21:13 51°25.031 2°56.255 43.5 12.5 34 24.4
2005-01-13 08:21:19 51°25.046 2°56.276 41.1 12 38 24.5
2005-01-13 08:21:22 51°25.054 2°56.286 43.7 11.8 39 24.3
2005-01-13 08:21:29 51°25.073 2°56.309 45.6 12.2 37 24.3
2005-01-13 08:21:34 51°25.085 2°56.326 43.3 11.9 42 24.5
2005-01-13 08:21:39 51°25.099 2°56.343 45.2 12.3 43 24.3
2005-01-13 08:21:43 51°25.109 2°56.358 42.1 12.1 37 24.1
2005-01-13 08:21:49 51°25.124 2°56.376 45.7 11.9 45 24.4
2005-01-13 08:21:53 51°25.134 2°56.393 45.1 12.2 42 24.4
2005-01-13 08:21:59 51°25.151 2°56.413 45.8 12.4 38 24.5
2005-01-13 08:22:02 51°25.156 2°56.428 45.4 12.5 45 24.7
2005-01-13 08:22:09 51°25.175 2°56.447 41.7 12 26 5.7
2005-01-13 08:22:13 51°25.185 2°56.462 46.4 12.3 46 24.6
2005-01-13 08:22:19 51°25.203 2°56.478 42.9 13 33 24.3
2005-01-13 08:22:22 51°25.211 2°56.489 39 12.4 32 24.3
2005-01-13 08:22:29 51°25.229 2°56.513 44.3 11.5 39 24.3
2005-01-13 08:22:33 51°25.239 2°56.527 45 12.1 40 24.4
2005-01-13 08:22:39 51°25.255 2°56.549 44.1 12.1 40 24.2
2005-01-13 08:22:44 51°25.27 2°56.563 45 12.1 40 24.3
2005-01-13 08:22:49 51°25.282 2°56.581 42 12.1 40 24.4
2005-01-13 08:22:54 51°25.296 2°56.598 44.2 12.2 38 24.4
2005-01-13 08:22:59 51°25.309 2°56.616 44.6 12.2 38 24.3
2005-01-13 08:23:05 51°25.326 2°56.637 44.2 12.7 36 24
2005-01-13 08:23:09 51°25.336 2°56.649 44.6 12.4 46 24
2005-01-13 08:23:14 51°25.35 2°56.666 43.6 12.2 33 23.5
2005-01-13 08:23:19 51°25.364 2°56.683 45 12.3 42 23.6
2005-01-13 08:23:23 51°25.375 2°56.694 41.8 12.3 31 23.6
2005-01-13 08:23:29 51°25.39 2°56.717 40.8 11.9 38 23.2
2005-01-13 08:23:33 51°25.403 2°56.726 43.6 12.6 29 23.3
2005-01-13 08:23:39 51°25.419 2°56.747 38.4 12.6 29 23.3
2005-01-13 08:23:41 51°25.424 2°56.753 40.6 12.2 41 23
2005-01-13 08:23:49 51°25.449 2°56.777 40.1 12.7 30 22.8
2005-01-13 08:23:54 51°25.463 2°56.791 39.3 12.8 33 22.7
2005-01-13 08:23:59 51°25.476 2°56.808 39 11.9 35 22.4
2005-01-13 08:24:04 51°25.491 2°56.82 41.2 12.2 32 22.3
2005-01-13 08:24:09 51°25.505 2°56.837 38.9 12.3 32 22.3
2005-01-13 08:24:14 51°25.519 2°56.851 38.8 12.1 35 22.3
2005-01-13 08:24:17 51°25.526 2°56.86 40.5 11.9 35 22.1
2005-01-13 08:24:22 51°25.54 2°56.874 39.9 11.8 33 22
2005-01-13 08:24:29 51°25.56 2°56.898 41.5 12.2 40 21.8
2005-01-13 08:24:33 51°25.571 2°56.91 40.9 12.6 32 21.3
2005-01-13 08:24:39 51°25.588 2°56.928 40.9 12.1 36 21.4
2005-01-13 08:24:44 51°25.601 2°56.944 40.6 11.8 35 21.3
2005-01-13 08:24:49 51°25.616 2°56.958 40.9 12.6 37 21.3
2005-01-13 08:24:54 51°25.631 2°56.973 37.1 12.7 25 20.8
2005-01-13 08:24:59 51°25.645 2°56.987 38.8 12.3 41 20.9
2005-01-13 08:25:04 51°25.658 2°57.004 37.7 12.2 24 20.6
2005-01-13 08:25:09 51°25.673 2°57.018 41 12.2 39 20.6
2005-01-13 08:25:14 51°25.687 2°57.034 38.8 12.6 33 20.3
2005-01-13 08:25:19 51°25.703 2°57.046 39.1 12.5 35 20.1
2005-01-13 08:25:24 51°25.715 2°57.063 36.9 12.2 28 20
2005-01-13 08:25:29 51°25.73 2°57.075 39.4 12.2 28 19.7
2005-01-13 08:25:33 51°25.741 2°57.09 39.1 12.3 37 19.3
2005-01-13 08:25:39 51°25.759 2°57.107 39.3 12.4 36 19.4
2005-01-13 08:25:44 51°25.771 2°57.124 41 11.9 38 19.4
2005-01-13 08:25:49 51°25.786 2°57.137 40.6 11.9 38 19.2
2005-01-13 08:25:54 51°25.799 2°57.155 38.9 12.2 41 19
2005-01-13 08:25:59 51°25.813 2°57.169 40.6 12.1 31 18.9
2005-01-13 08:26:02 51°25.82 2°57.179 41.5 12.1 31 19
2005-01-13 08:26:09 51°25.841 2°57.2 38.8 12.1 29 18.8
2005-01-13 08:26:14 51°25.854 2°57.216 41 12.1 29 18.9
2005-01-13 08:26:19 51°25.868 2°57.23 39 12.4 25 18.5
2005-01-13 08:26:22 51°25.877 2°57.24 39.2 12 39 18.3
2005-01-13 08:26:29 51°25.897 2°57.258 40 12.2 31 17.8
2005-01-13 08:26:33 51°25.907 2°57.274 39.3 12.3 41 18.1
2005-01-13 08:26:39 51°25.925 2°57.29 39.2 12.4 29 18.3
2005-01-13 08:26:44 51°25.939 2°57.305 40 12.4 39 18
2005-01-13 08:26:49 51°25.953 2°57.321 38.4 12 26 17.1
2005-01-13 08:26:54 51°25.967 2°57.335 38.5 12.3 38 17.5
2005-01-13 08:26:59 51°25.983 2°57.348 36.5 12.6 22 17.5
2005-01-13 08:27:05 51°26 2°57.365 36.5 12.4 37 17.6
2005-01-13 08:27:09 51°26.011 2°57.377 37.9 12.2 28 17.8
2005-01-13 08:27:14 51°26.025 2°57.394 39.7 12.4 38 17.2
2005-01-13 08:27:19 51°26.04 2°57.408 38.1 12.3 26 17.3
2005-01-13 08:27:24 51°26.053 2°57.425 39.6 11.9 38 17.4
2005-01-13 08:27:29 51°26.066 2°57.439 40.1 11.9 38 16.4
2005-01-13 08:27:33 51°26.078 2°57.452 41.2 12.2 38 15.8
2005-01-13 08:27:39 51°26.094 2°57.47 39.2 12 31 13.5
2005-01-13 08:27:44 51°26.108 2°57.484 40.6 12 37 16.4
2005-01-13 08:27:49 51°26.122 2°57.5 39.1 12 37 17.1
2005-01-13 08:27:53 51°26.132 2°57.513 38.8 12 36 17.1
2005-01-13 08:27:59 51°26.149 2°57.532 41.3 12 36 17
2005-01-13 08:28:04 51°26.164 2°57.546 40.7 12.2 34 17.5
2005-01-13 08:28:09 51°26.177 2°57.56 39.7 12.2 38 17.3
2005-01-13 08:28:14 51°26.191 2°57.578 39.2 12.1 31 16.4
2005-01-13 08:28:19 51°26.206 2°57.592 39.9 12.1 31 14.6
2005-01-13 08:28:25 51°26.222 2°57.609 37.7 12.3 31 16.9
2005-01-13 08:28:29 51°26.233 2°57.622 38.7 12.2 36 17.1
2005-01-13 08:28:34 51°26.247 2°57.639 39.1 12.3 35 16.9
2005-01-13 08:28:39 51°26.262 2°57.653 41.7 12.6 38 16.9
2005-01-13 08:28:45 51°26.279 2°57.673 38.3 12.3 32 16.1
2005-01-13 08:28:49 51°26.29 2°57.684 38.9 12 35 13.6
2005-01-13 08:28:53 51°26.301 2°57.696 39.1 12 35 15
2005-01-13 08:28:57 51°26.312 2°57.709 41.4 12.3 38 16.2
2005-01-13 08:29:04 51°26.332 2°57.732 36.8 12.4 37 16.5
2005-01-13 08:29:09 51°26.347 2°57.743 39.9 12.3 34 16.6
2005-01-13 08:29:14 51°26.36 2°57.761 37.7 12.1 37 16.5
2005-01-13 08:29:19 51°26.375 2°57.775 38.8 12 32 14.8
2005-01-13 08:29:24 51°26.388 2°57.791 38.8 12.2 34 16.4
2005-01-13 08:29:29 51°26.403 2°57.806 40 12.2 34 16.1
2005-01-13 08:29:33 51°26.414 2°57.819 39.9 12.3 38 15.1
2005-01-13 08:29:39 51°26.43 2°57.841 38.7 12 32 14.3
2005-01-13 08:29:44 51°26.446 2°57.85 43.3 12.7 44 15.2
2005-01-13 08:29:49 51°26.458 2°57.869 35.8 12.7 44 13.2
2005-01-13 08:29:54 51°26.472 2°57.88 38.5 12 25 15.3
2005-01-13 08:29:59 51°26.487 2°57.896 39.3 12 41 15.8
2005-01-13 08:30:02 51°26.495 2°57.904 37.7 12 41 14.9
2005-01-13 08:30:09 51°26.515 2°57.925 39 12.1 34 14.1
2005-01-13 08:30:14 51°26.528 2°57.94 39 12.1 34 15.3
2005-01-13 08:30:19 51°26.541 2°57.959 37.7 11.6 29 14
2005-01-13 08:30:22 51°26.549 2°57.969 44.3 12.4 50 15.8
2005-01-13 08:30:29 51°26.569 2°57.99 37.4 12.4 28 16
2005-01-13 08:30:33 51°26.58 2°57.998 39.8 11.9 31 15.9
2005-01-13 08:30:39 51°26.597 2°58.02 39.6 11.9 31 16.4
2005-01-13 08:30:44 51°26.611 2°58.032 39.9 11.9 31 17.2
2005-01-13 08:30:49 51°26.624 2°58.051 37.6 11.9 31 17.4
2005-01-13 08:30:54 51°26.639 2°58.065 41.1 12.6 35 17.5
2005-01-13 08:30:59 51°26.652 2°58.08 36.7 12.6 35 17.3
2005-01-13 08:31:05 51°26.67 2°58.098 40.6 12.1 42 16.4
2005-01-13 08:31:09 51°26.681 2°58.112 38.5 12.5 30 15.4
2005-01-13 08:31:14 51°26.695 2°58.125 39.1 12.4 32 16.8
2005-01-13 08:31:19 51°26.709 2°58.142 38.5 12.4 31 16
2005-01-13 08:31:23 51°26.72 2°58.153 38.8 12.1 34 16.2
2005-01-13 08:31:29 51°26.738 2°58.171 42.2 12.5 38 15.7
2005-01-13 08:31:33 51°26.749 2°58.185 37 12.4 35 15.2
2005-01-13 08:31:39 51°26.766 2°58.202 39.8 12.4 35 15.7
2005-01-13 08:31:41 51°26.771 2°58.208 38 12.1 30 13.6
2005-01-13 08:31:49 51°26.793 2°58.233 36.1 11.9 30 13.5
2005-01-13 08:31:54 51°26.808 2°58.246 41.3 12.2 38 14.7
2005-01-13 08:31:59 51°26.821 2°58.264 38.8 12.4 37 15.6
2005-01-13 08:32:04 51°26.833 2°58.283 41.8 12.1 44 14.4